Time;durP1;ratioP1;P1;durP2;ratioP2;P2;SDS_P1;SDS_P2;PMS_P1;PMS_P2;Temp;Humidity;BMP_temperature;BMP_pressure;BME280_temperature;BME280_humidity;BME280_pressure;Samples;Min_cycle;Max_cycle;Signal;HPM_P1;HPM_P2
2021/07/12 00:00:34;;;;;;;;;2.00;2.00;;;;;19.25;62.35;100383.47;4975754;28;65970;-60
2021/07/12 00:03:00;;;;;;;;;4.00;3.00;;;;;19.20;62.57;100394.72;4976250;28;45343;-60
2021/07/12 00:05:25;;;;;;;;;3.25;3.00;;;;;19.17;62.54;100395.13;4976379;28;45376;-60
2021/07/12 00:07:51;;;;;;;;;3.00;3.00;;;;;19.12;62.67;100398.34;4976351;28;45331;-59
2021/07/12 00:10:18;;;;;;;;;3.00;3.00;;;;;19.09;62.66;100392.63;4976270;28;45245;-59
2021/07/12 00:12:43;;;;;;;;;2.00;2.00;;;;;19.05;62.83;100386.88;4976142;28;45398;-60
2021/07/12 00:15:10;;;;;;;;;2.75;2.75;;;;;19.02;63.02;100371.28;4976183;28;45272;-59
2021/07/12 00:17:35;;;;;;;;;5.00;4.00;;;;;19.02;62.61;100370.44;4975103;28;45414;-60
2021/07/12 00:20:02;;;;;;;;;4.00;3.75;;;;;19.00;62.48;100362.66;4974797;28;45497;-60
2021/07/12 00:22:27;;;;;;;;;3.50;3.00;;;;;19.01;62.96;100358.16;4976033;28;45394;-59
2021/07/12 00:24:53;;;;;;;;;3.00;3.00;;;;;19.01;62.95;100352.81;4975225;28;69549;-60
2021/07/12 00:27:18;;;;;;;;;2.75;2.00;;;;;18.98;62.91;100333.56;4975205;28;66297;-60
2021/07/12 00:29:44;;;;;;;;;3.00;3.00;;;;;18.96;63.44;100329.47;4976149;28;45417;-60
2021/07/12 00:32:09;;;;;;;;;3.00;2.00;;;;;18.97;63.29;100331.91;4974532;28;45387;-59
2021/07/12 00:34:34;;;;;;;;;2.25;2.25;;;;;18.97;63.36;100328.44;4975938;28;48041;-60
2021/07/12 00:37:00;;;;;;;;;3.00;3.00;;;;;18.94;63.23;100328.81;4975311;28;61904;-59
2021/07/12 00:39:25;;;;;;;;;3.50;2.50;;;;;18.92;63.34;100333.50;4976036;28;45223;-59
2021/07/12 00:41:52;;;;;;;;;3.00;3.00;;;;;18.90;63.22;100330.22;4974612;28;73853;-59
2021/07/12 00:44:17;;;;;;;;;3.75;3.00;;;;;18.90;63.45;100336.34;4975782;28;45896;-59
2021/07/12 00:46:43;;;;;;;;;3.50;3.50;;;;;18.88;63.30;100337.56;4975045;28;66261;-59
2021/07/12 00:49:08;;;;;;;;;3.75;3.75;;;;;18.84;63.44;100322.00;4975130;28;67746;-60
2021/07/12 00:51:33;;;;;;;;;4.00;3.50;;;;;18.83;62.92;100317.69;4974762;28;72192;-60
2021/07/12 00:53:59;;;;;;;;;3.75;3.75;;;;;18.81;63.35;100335.69;4973756;28;65881;-60
2021/07/12 00:56:24;;;;;;;;;3.25;2.75;;;;;18.82;63.15;100358.63;4974733;28;45384;-60
2021/07/12 00:58:49;;;;;;;;;3.00;3.00;;;;;18.79;63.01;100366.19;4974851;28;65098;-59
2021/07/12 01:01:15;;;;;;;;;4.00;3.50;;;;;18.74;63.19;100358.78;4974644;28;70919;-59
2021/07/12 01:03:40;;;;;;;;;3.00;3.00;;;;;18.69;63.47;100364.69;4974738;28;68632;-59
2021/07/12 01:06:06;;;;;;;;;2.50;2.50;;;;;18.66;63.20;100367.75;4974755;28;63826;-59
2021/07/12 01:08:31;;;;;;;;;3.25;3.25;;;;;18.63;63.07;100362.81;4975615;28;45209;-60
2021/07/12 01:11:25;;;;;;;;;3.00;3.00;;;;;18.63;63.34;100364.63;4976925;28;45301;-59
2021/07/12 01:14:03;;;;;;;;;3.00;3.00;;;;;18.61;63.43;100366.66;4977179;27;45248;-59
2021/07/12 01:16:33;;;;;;;;;6.00;5.00;;;;;18.60;63.66;100359.69;4975693;28;45231;-60
2021/07/12 01:19:16;;;;;;;;;4.50;4.00;;;;;18.60;63.67;100357.03;4990529;28;45462;-60
2021/07/12 01:22:12;;;;;;;;;5.75;4.00;;;;;18.59;63.35;100342.09;4974089;28;46087;-60
2021/07/12 01:25:13;;;;;;;;;4.00;3.00;;;;;18.59;63.76;100329.63;4975367;28;45331;-59
2021/07/12 01:28:03;;;;;;;;;3.75;3.00;;;;;18.63;63.88;100330.03;4974282;28;45264;-60
2021/07/12 01:31:20;;;;;;;;;3.50;3.50;;;;;18.63;63.77;100319.38;4975469;28;45298;-60
2021/07/12 01:34:00;;;;;;;;;3.00;3.00;;;;;18.63;63.90;100314.91;4970635;28;47155;-59
2021/07/12 01:36:47;;;;;;;;;3.00;3.00;;;;;18.63;63.78;100303.44;4975317;28;45761;-59
2021/07/12 01:39:15;;;;;;;;;4.00;2.00;;;;;18.62;64.20;100285.81;4974143;28;45352;-60
2021/07/12 01:42:00;;;;;;;;;3.00;3.00;;;;;18.61;64.21;100281.50;4974268;28;45311;-59
2021/07/12 01:44:51;;;;;;;;;3.00;3.00;;;;;18.62;64.02;100277.84;4974312;28;46991;-60
2021/07/12 01:47:41;;;;;;;;;3.00;3.00;;;;;18.60;64.25;100274.53;4966575;28;45915;-59
2021/07/12 01:50:40;;;;;;;;;3.00;3.00;;;;;18.57;64.55;100280.25;4975310;28;45468;-59
2021/07/12 01:53:08;;;;;;;;;2.00;2.00;;;;;18.57;64.46;100282.91;4975156;28;45525;-60
2021/07/12 01:55:56;;;;;;;;;3.25;2.00;;;;;18.58;64.72;100279.25;4973583;28;46135;-59
2021/07/12 01:58:36;;;;;;;;;4.00;2.75;;;;;18.58;64.50;100280.06;4960469;28;45462;-60
2021/07/12 02:01:02;;;;;;;;;3.25;3.25;;;;;18.58;64.55;100279.25;4973917;28;45407;-59
2021/07/12 02:03:28;;;;;;;;;4.00;4.00;;;;;18.58;64.49;100271.25;4974891;28;45437;-60
2021/07/12 02:05:55;;;;;;;;;4.25;3.00;;;;;18.59;64.30;100275.56;4973467;28;46392;-59
2021/07/12 02:08:22;;;;;;;;;4.00;4.00;;;;;18.60;63.93;100269.22;4973386;28;45387;-60
2021/07/12 02:10:47;;;;;;;;;3.00;3.00;;;;;18.60;64.15;100256.75;4973576;28;45441;-59
2021/07/12 02:13:13;;;;;;;;;4.00;3.00;;;;;18.62;64.62;100260.03;4972642;28;67175;-60
2021/07/12 02:15:39;;;;;;;;;2.25;2.25;;;;;18.66;64.42;100263.13;4974577;28;46371;-60
2021/07/12 02:18:04;;;;;;;;;3.75;3.75;;;;;18.65;64.41;100264.97;4972547;28;71605;-60
2021/07/12 02:20:30;;;;;;;;;4.00;3.00;;;;;18.66;64.80;100276.44;4972608;28;60071;-60
2021/07/12 02:22:56;;;;;;;;;3.00;3.00;;;;;18.63;64.79;100261.69;4957487;28;45515;-60
2021/07/12 02:25:21;;;;;;;;;3.75;2.50;;;;;18.64;64.73;100260.66;4974413;28;46076;-59
2021/07/12 02:27:47;;;;;;;;;3.00;3.00;;;;;18.65;64.72;100257.00;4974200;28;52945;-60
2021/07/12 02:30:13;;;;;;;;;2.00;2.00;;;;;18.68;64.87;100263.75;4972589;28;68131;-60
2021/07/12 02:32:38;;;;;;;;;4.00;2.75;;;;;18.70;64.53;100261.72;4957227;28;45582;-60
2021/07/12 02:35:08;;;;;;;;;3.25;3.25;;;;;18.72;64.56;100262.34;4957136;28;45332;-59
2021/07/12 02:37:37;;;;;;;;;3.00;3.00;;;;;18.73;64.80;100269.31;4974468;28;45753;-59
2021/07/12 02:40:05;;;;;;;;;4.50;3.00;;;;;18.74;64.69;100273.63;4973271;28;45458;-59
2021/07/12 02:42:30;;;;;;;;;2.75;2.75;;;;;18.76;64.86;100282.22;4973336;28;45312;-60
2021/07/12 02:44:55;;;;;;;;;2.00;2.00;;;;;18.75;64.84;100274.44;4956951;28;45348;-59
2021/07/12 02:47:21;;;;;;;;;5.00;3.00;;;;;18.75;64.87;100277.13;4956797;28;45389;-60
2021/07/12 02:49:46;;;;;;;;;3.00;3.00;;;;;18.74;64.95;100273.63;4974425;28;45479;-60
2021/07/12 02:52:33;;;;;;;;;3.50;3.50;;;;;18.74;64.55;100267.47;4972358;28;67029;-59
2021/07/12 02:54:59;;;;;;;;;3.00;3.00;;;;;18.75;65.06;100269.94;4973047;28;45344;-59
2021/07/12 02:57:26;;;;;;;;;5.00;3.00;;;;;18.76;64.79;100263.59;4972819;28;45813;-59
2021/07/12 02:59:52;;;;;;;;;2.75;2.75;;;;;18.77;64.84;100251.94;4974175;28;45299;-59
2021/07/12 03:02:18;;;;;;;;;2.00;2.00;;;;;18.80;64.82;100259.53;4956762;28;45305;-59
2021/07/12 03:04:43;;;;;;;;;4.75;4.00;;;;;18.85;64.50;100261.56;4973873;28;45303;-60
2021/07/12 03:07:20;;;;;;;;;3.00;3.00;;;;;18.86;65.14;100265.88;4972848;28;73183;-60
2021/07/12 03:09:46;;;;;;;;;4.25;3.00;;;;;18.86;65.17;100265.06;4957822;28;45362;-60
2021/07/12 03:12:24;;;;;;;;;3.50;2.50;;;;;18.83;65.16;100251.13;4971771;28;67609;-60
2021/07/12 03:14:52;;;;;;;;;3.00;3.00;;;;;18.83;65.32;100244.97;4972745;28;46160;-60
2021/07/12 03:17:17;;;;;;;;;3.75;3.75;;;;;18.86;64.98;100241.13;4972732;28;45934;-59
2021/07/12 03:19:44;;;;;;;;;3.00;3.00;;;;;18.88;65.39;100233.75;4955867;28;62044;-60
2021/07/12 03:22:10;;;;;;;;;4.00;3.00;;;;;18.88;65.09;100226.56;4973772;28;45340;-59
2021/07/12 03:24:37;;;;;;;;;2.75;2.75;;;;;18.88;65.22;100229.25;4973780;28;45369;-60
2021/07/12 03:27:03;;;;;;;;;3.00;3.00;;;;;18.86;65.60;100223.28;4972329;28;45194;-60
2021/07/12 03:29:30;;;;;;;;;4.00;4.00;;;;;18.91;65.45;100233.38;4975346;28;45296;-60
2021/07/12 03:31:56;;;;;;;;;3.00;3.00;;;;;18.90;65.31;100221.88;4972570;28;45194;-60
2021/07/12 03:34:22;;;;;;;;;3.00;3.00;;;;;18.91;65.66;100222.72;4972209;28;46074;-59
2021/07/12 03:36:47;;;;;;;;;2.75;2.75;;;;;18.89;65.59;100228.22;4972416;28;45431;-59
2021/07/12 03:39:12;;;;;;;;;4.25;4.00;;;;;18.86;66.02;100212.66;4956347;28;45557;-60
2021/07/12 03:41:38;;;;;;;;;3.00;3.00;;;;;18.83;66.10;100208.56;4973429;28;46037;-60
2021/07/12 03:44:07;;;;;;;;;4.00;4.00;;;;;18.80;66.22;100214.28;4973493;28;45550;-59
2021/07/12 03:46:32;;;;;;;;;5.50;4.25;;;;;18.80;66.69;100216.13;4973477;28;45426;-60
2021/07/12 03:48:57;;;;;;;;;2.25;2.00;;;;;18.80;66.45;100218.78;4972515;28;68017;-60
2021/07/12 03:51:23;;;;;;;;;5.00;4.00;;;;;18.81;66.16;100207.94;4973614;28;45227;-59
2021/07/12 03:53:49;;;;;;;;;4.75;3.00;;;;;18.82;66.25;100195.44;4973185;28;46034;-60
2021/07/12 03:56:14;;;;;;;;;3.00;3.00;;;;;18.81;66.41;100189.31;4973365;28;45416;-60
2021/07/12 03:58:40;;;;;;;;;3.25;3.25;;;;;18.81;66.15;100183.16;4971995;28;45222;-59
2021/07/12 04:01:05;;;;;;;;;4.25;3.50;;;;;18.79;66.54;100188.69;4972431;28;60258;-60
2021/07/12 04:03:31;;;;;;;;;4.00;4.00;;;;;18.79;66.51;100195.84;4973074;28;46139;-59
2021/07/12 04:05:56;;;;;;;;;3.00;3.00;;;;;18.79;66.44;100198.50;4972594;28;55741;-60
2021/07/12 04:08:21;;;;;;;;;3.00;3.00;;;;;18.79;66.46;100204.66;4974894;28;45311;-60
2021/07/12 04:10:47;;;;;;;;;3.00;3.00;;;;;18.79;66.39;100195.84;4976276;28;45327;-60
2021/07/12 04:13:13;;;;;;;;;5.50;3.00;;;;;18.78;66.46;100202.19;4975351;28;63966;-59
2021/07/12 04:15:39;;;;;;;;;3.00;3.00;;;;;18.77;66.40;100196.03;4976196;28;45818;-59
2021/07/12 04:18:05;;;;;;;;;4.00;3.00;;;;;18.77;66.36;100192.56;4976185;28;45252;-60
2021/07/12 04:20:31;;;;;;;;;3.00;3.00;;;;;18.78;65.71;100192.34;4975919;28;45783;-60
2021/07/12 04:22:56;;;;;;;;;3.00;3.00;;;;;18.76;66.00;100194.41;4976013;28;45514;-59
2021/07/12 04:25:23;;;;;;;;;3.75;3.00;;;;;18.75;66.54;100183.97;4976137;28;45798;-60
2021/07/12 04:27:48;;;;;;;;;3.75;3.00;;;;;18.72;66.00;100184.34;4976083;28;45410;-60
2021/07/12 04:30:14;;;;;;;;;5.00;3.50;;;;;18.72;66.00;100185.16;4975301;28;62067;-59
2021/07/12 04:32:41;;;;;;;;;4.00;4.00;;;;;18.70;66.01;100179.22;4975838;28;45906;-60
2021/07/12 04:35:07;;;;;;;;;4.50;4.00;;;;;18.70;66.40;100171.22;4975872;28;45789;-60
2021/07/12 04:37:32;;;;;;;;;4.25;3.50;;;;;18.70;66.26;100176.56;4975853;28;45344;-60
2021/07/12 04:39:58;;;;;;;;;2.50;2.50;;;;;18.68;66.81;100174.09;4975952;28;45346;-60
2021/07/12 04:42:23;;;;;;;;;3.00;3.00;;;;;18.67;66.72;100172.47;4974810;28;66407;-60
2021/07/12 04:44:48;;;;;;;;;4.00;4.00;;;;;18.68;66.59;100165.28;4975311;28;62133;-60
2021/07/12 04:47:14;;;;;;;;;3.00;2.50;;;;;18.70;66.90;100171.22;4975792;28;45307;-60
2021/07/12 04:49:39;;;;;;;;;4.00;3.50;;;;;18.71;66.76;100170.22;4975912;28;45499;-59
2021/07/12 04:52:05;;;;;;;;;3.00;3.00;;;;;18.70;66.70;100163.25;4974798;28;71548;-60
2021/07/12 04:54:30;;;;;;;;;3.25;3.00;;;;;18.71;66.25;100156.91;4975521;28;45395;-60
2021/07/12 04:56:55;;;;;;;;;3.25;3.25;;;;;18.69;66.33;100159.78;4974836;28;65872;-60
2021/07/12 04:59:28;;;;;;;;;3.00;3.00;;;;;18.70;66.38;100163.25;4974855;28;66678;-60
2021/07/12 05:01:54;;;;;;;;;3.00;3.00;;;;;18.68;66.52;100158.13;4976873;28;46488;-59
2021/07/12 05:04:19;;;;;;;;;5.50;4.75;;;;;18.68;66.53;100151.97;4975733;28;45939;-59
2021/07/12 05:06:45;;;;;;;;;2.75;2.75;;;;;18.67;66.42;100167.16;4974634;28;65727;-59
2021/07/12 05:09:10;;;;;;;;;4.00;3.00;;;;;18.66;66.55;100169.97;4975408;28;45378;-59
2021/07/12 05:11:35;;;;;;;;;4.00;3.50;;;;;18.66;66.91;100165.50;4973983;28;45409;-60
2021/07/12 05:14:01;;;;;;;;;3.75;3.75;;;;;18.63;66.84;100171.22;4975554;28;45381;-59
2021/07/12 05:16:26;;;;;;;;;3.00;3.00;;;;;18.62;67.04;100171.41;4974247;28;45498;-59
2021/07/12 05:18:52;;;;;;;;;4.00;3.00;;;;;18.62;66.86;100187.38;4974320;28;45512;-60
2021/07/12 05:21:17;;;;;;;;;3.00;2.75;;;;;18.58;67.40;100178.13;4973860;28;45359;-59
2021/07/12 05:23:43;;;;;;;;;3.25;3.25;;;;;18.56;67.24;100178.34;4975272;28;45243;-59
2021/07/12 05:26:08;;;;;;;;;3.00;3.00;;;;;18.53;67.36;100174.25;4975567;28;45456;-59
2021/07/12 05:28:34;;;;;;;;;4.00;4.00;;;;;18.50;67.59;100168.50;4974486;28;65678;-60
2021/07/12 05:30:59;;;;;;;;;4.25;3.00;;;;;18.52;67.56;100164.63;4975190;28;45382;-60
2021/07/12 05:33:25;;;;;;;;;4.00;3.50;;;;;18.50;67.60;100153.38;4975286;28;45334;-60
2021/07/12 05:35:50;;;;;;;;;3.00;3.00;;;;;18.50;67.88;100155.19;4975107;28;49877;-59
2021/07/12 05:38:15;;;;;;;;;2.50;2.50;;;;;18.52;67.56;100148.66;4975306;28;45240;-59
2021/07/12 05:40:41;;;;;;;;;4.75;3.00;;;;;18.52;67.84;100153.16;4974039;28;75440;-59
2021/07/12 05:43:08;;;;;;;;;3.25;3.00;;;;;18.50;68.31;100150.72;4972765;28;71981;-59
2021/07/12 05:45:33;;;;;;;;;3.00;3.00;;;;;18.50;68.19;100144.53;4975016;28;45372;-60
2021/07/12 05:47:59;;;;;;;;;3.00;3.00;;;;;18.50;68.36;100150.72;4975087;28;45508;-59
2021/07/12 05:50:24;;;;;;;;;3.00;3.00;;;;;18.51;68.29;100152.34;4974087;28;71499;-60
2021/07/12 05:52:49;;;;;;;;;4.00;3.25;;;;;18.52;68.44;100154.00;4973874;28;73307;-59
2021/07/12 05:55:15;;;;;;;;;6.00;4.25;;;;;18.51;68.45;100147.03;4974019;28;66360;-59
2021/07/12 05:57:40;;;;;;;;;4.25;4.25;;;;;18.53;68.66;100147.66;4974272;28;57706;-60
2021/07/12 06:00:07;;;;;;;;;4.00;2.75;;;;;18.53;68.62;100149.47;4974825;28;45930;-60
2021/07/12 06:02:32;;;;;;;;;3.75;3.25;;;;;18.56;68.37;100154.41;4974287;28;45803;-59
2021/07/12 06:04:57;;;;;;;;;3.00;3.00;;;;;18.52;68.82;100154.00;4974355;28;54615;-60
2021/07/12 06:07:23;;;;;;;;;5.00;2.75;;;;;18.51;68.64;100152.34;4973747;28;63731;-60
2021/07/12 06:09:48;;;;;;;;;4.00;3.00;;;;;18.51;68.73;100147.03;4974709;28;45818;-60
2021/07/12 06:12:14;;;;;;;;;4.00;4.00;;;;;18.50;68.79;100149.88;4974580;28;45232;-59
2021/07/12 06:14:39;;;;;;;;;4.50;4.50;;;;;18.51;68.97;100140.88;4974614;28;45253;-60
2021/07/12 06:17:04;;;;;;;;;3.75;3.75;;;;;18.50;69.29;100140.06;4973776;28;66596;-60
2021/07/12 06:19:30;;;;;;;;;4.00;4.00;;;;;18.51;69.21;100143.53;4974361;28;46040;-59
2021/07/12 06:21:55;;;;;;;;;4.00;4.00;;;;;18.52;69.31;100143.34;4973242;28;45427;-60
2021/07/12 06:24:21;;;;;;;;;4.00;4.00;;;;;18.58;69.03;100140.88;4973726;28;68290;-59
2021/07/12 06:26:46;;;;;;;;;3.25;3.00;;;;;18.57;69.27;100137.41;4974621;28;45428;-59
2021/07/12 06:29:11;;;;;;;;;3.00;3.00;;;;;18.55;69.55;100136.78;4973884;28;67511;-59
2021/07/12 06:31:37;;;;;;;;;4.75;4.25;;;;;18.56;69.57;100142.91;4974151;28;45312;-60
2021/07/12 06:34:02;;;;;;;;;3.75;3.75;;;;;18.55;69.75;100147.44;4974458;28;45272;-60
2021/07/12 06:36:28;;;;;;;;;3.25;3.25;;;;;18.57;69.20;100152.53;4973643;28;64408;-59
2021/07/12 06:38:53;;;;;;;;;6.00;6.00;;;;;18.59;69.43;100150.50;4972495;28;64183;-59
2021/07/12 06:41:18;;;;;;;;;5.00;5.00;;;;;18.60;69.34;100146.81;4973696;28;63623;-59
2021/07/12 06:43:44;;;;;;;;;5.25;5.25;;;;;18.60;69.26;100136.19;4974714;28;45417;-60
2021/07/12 06:46:09;;;;;;;;;5.00;5.00;;;;;18.60;69.04;100139.69;4975792;28;45551;-59
2021/07/12 06:48:35;;;;;;;;;7.25;6.75;;;;;18.60;69.17;100134.38;4973107;28;71184;-60
2021/07/12 06:51:00;;;;;;;;;5.00;5.00;;;;;18.63;69.02;100120.66;4973327;28;70518;-59
2021/07/12 06:53:26;;;;;;;;;7.00;7.00;;;;;18.66;69.16;100119.44;4974522;28;45268;-59
2021/07/12 06:55:51;;;;;;;;;8.75;6.25;;;;;18.67;69.09;100113.09;4973487;28;70954;-60
2021/07/12 06:58:16;;;;;;;;;5.25;5.00;;;;;18.68;69.14;100104.09;4973036;28;46266;-60
2021/07/12 07:00:42;;;;;;;;;8.00;6.25;;;;;18.68;69.26;100104.91;4973544;28;61697;-60
2021/07/12 07:03:08;;;;;;;;;4.00;4.00;;;;;18.69;69.03;100105.72;4974000;28;49153;-59
2021/07/12 07:05:34;;;;;;;;;6.00;6.00;;;;;18.69;69.34;100095.09;4974397;28;45544;-59
2021/07/12 07:08:00;;;;;;;;;6.50;6.00;;;;;18.68;69.60;100091.63;4972784;28;46323;-59
2021/07/12 07:10:25;;;;;;;;;5.50;5.50;;;;;18.69;69.52;100093.25;4974028;28;45385;-59
2021/07/12 07:12:51;;;;;;;;;7.00;6.25;;;;;18.69;70.10;100103.06;4974201;28;45507;-59
2021/07/12 07:15:16;;;;;;;;;6.00;6.00;;;;;18.69;70.13;100117.19;4973978;28;45363;-59
2021/07/12 07:17:41;;;;;;;;;7.00;5.50;;;;;18.71;69.89;100124.97;4973079;28;67753;-60
2021/07/12 07:20:07;;;;;;;;;5.00;5.00;;;;;18.71;69.94;100124.97;4972846;28;69227;-60
2021/07/12 07:22:33;;;;;;;;;8.25;6.00;;;;;18.72;69.99;100131.94;4974143;28;45389;-60
2021/07/12 07:24:58;;;;;;;;;5.00;5.00;;;;;18.74;70.12;100143.22;4973920;28;45323;-59
2021/07/12 07:27:23;;;;;;;;;6.00;6.00;;;;;18.76;69.52;100141.16;4972471;28;70769;-59
2021/07/12 07:29:49;;;;;;;;;8.50;7.50;;;;;18.76;69.65;100130.53;4972983;28;63776;-59
2021/07/12 07:32:14;;;;;;;;;5.00;5.00;;;;;18.77;69.18;100142.00;4972975;28;63477;-59
2021/07/12 07:34:40;;;;;;;;;6.00;5.75;;;;;18.79;69.34;100150.59;4973735;28;45439;-60
2021/07/12 07:37:05;;;;;;;;;6.25;4.25;;;;;18.80;69.08;100152.25;4973390;28;45907;-59
2021/07/12 07:39:31;;;;;;;;;7.25;5.50;;;;;18.83;69.70;100165.97;4973471;28;45283;-60
2021/07/12 07:41:58;;;;;;;;;6.50;6.50;;;;;18.82;69.75;100164.31;4972625;28;69369;-59
2021/07/12 07:44:23;;;;;;;;;4.00;3.25;;;;;18.85;69.50;100163.09;4976576;28;45492;-59
2021/07/12 07:46:49;;;;;;;;;5.00;5.00;;;;;18.86;69.47;100162.06;4976265;28;47527;-60
2021/07/12 07:49:14;;;;;;;;;6.00;4.75;;;;;18.87;69.78;100155.72;4976580;28;45497;-59
2021/07/12 07:51:41;;;;;;;;;6.00;6.00;;;;;18.87;69.94;100138.94;4975705;28;65920;-59
2021/07/12 07:54:06;;;;;;;;;6.50;5.25;;;;;18.88;69.72;100137.94;4975286;28;45388;-59
2021/07/12 07:56:32;;;;;;;;;4.75;4.00;;;;;18.91;69.71;100145.50;4976331;28;47401;-60
2021/07/12 07:58:57;;;;;;;;;6.00;5.25;;;;;18.93;69.72;100149.59;4975277;28;45478;-60
2021/07/12 08:01:23;;;;;;;;;5.00;4.00;;;;;18.95;69.99;100146.75;4976434;28;45239;-59
2021/07/12 08:03:48;;;;;;;;;4.00;4.00;;;;;18.97;69.46;100136.75;4976326;28;45573;-59
2021/07/12 08:06:17;;;;;;;;;6.50;5.00;;;;;18.97;69.09;100128.78;4976080;28;46168;-60
2021/07/12 08:08:43;;;;;;;;;5.50;5.50;;;;;18.98;69.06;100133.88;4975891;28;45484;-59
2021/07/12 08:11:08;;;;;;;;;5.00;5.00;;;;;19.01;69.10;100150.47;4975849;28;49781;-60
2021/07/12 08:13:33;;;;;;;;;5.00;4.00;;;;;19.00;69.59;100155.00;4975165;28;66675;-59
2021/07/12 08:15:59;;;;;;;;;7.75;6.00;;;;;18.99;69.59;100158.69;4976129;28;45294;-60
2021/07/12 08:18:24;;;;;;;;;4.00;4.00;;;;;18.98;69.90;100157.84;4975346;28;66853;-59
2021/07/12 08:20:49;;;;;;;;;5.00;5.00;;;;;18.98;70.39;100149.06;4975036;28;64357;-59
2021/07/12 08:23:15;;;;;;;;;7.00;5.50;;;;;18.98;70.36;100151.72;4976013;28;45220;-60
2021/07/12 08:25:41;;;;;;;;;8.50;7.00;;;;;18.98;70.30;100151.72;4975781;28;45820;-60
2021/07/12 08:28:06;;;;;;;;;6.00;5.75;;;;;19.01;70.62;100151.31;4975971;28;45449;-59
2021/07/12 08:30:31;;;;;;;;;8.75;6.00;;;;;19.04;70.52;100145.59;4975268;28;65074;-59
2021/07/12 08:32:57;;;;;;;;;5.50;4.50;;;;;19.07;70.64;100147.84;4975485;28;52273;-59
2021/07/12 08:35:23;;;;;;;;;7.00;7.00;;;;;19.13;70.63;100154.19;4976062;28;45925;-59
2021/07/12 08:37:49;;;;;;;;;8.25;8.25;;;;;19.21;70.25;100153.19;4975994;28;45340;-59
2021/07/12 08:40:15;;;;;;;;;11.00;9.00;;;;;19.25;70.13;100157.06;4976086;28;45450;-60
2021/07/12 08:42:40;;;;;;;;;7.25;5.50;;;;;19.28;70.53;100162.00;4976130;28;45742;-59
2021/07/12 08:45:06;;;;;;;;;7.50;5.50;;;;;19.32;70.07;100175.75;4975260;28;66710;-59
2021/07/12 08:47:31;;;;;;;;;4.25;4.00;;;;;19.34;70.06;100171.84;4975570;28;45312;-60
2021/07/12 08:49:57;;;;;;;;;12.00;10.00;;;;;19.37;70.18;100174.09;4975660;28;45288;-58
2021/07/12 08:52:22;;;;;;;;;10.50;7.50;;;;;19.42;69.73;100176.16;4973969;28;56546;-60
2021/07/12 08:54:47;;;;;;;;;8.00;7.00;;;;;19.45;69.60;100186.41;4974186;28;72706;-59
2021/07/12 08:57:13;;;;;;;;;5.75;5.75;;;;;19.45;68.83;100181.06;4977304;28;45320;-59
2021/07/12 08:59:40;;;;;;;;;8.75;7.75;;;;;19.46;69.06;100180.03;4975598;28;45608;-60
2021/07/12 09:02:15;;;;;;;;;8.25;8.00;;;;;19.43;69.21;100159.13;4975556;28;45412;-59
2021/07/12 09:04:41;;;;;;;;;9.00;7.50;;;;;19.47;69.68;100164.91;4974439;28;45367;-60
2021/07/12 09:07:11;;;;;;;;;7.25;7.00;;;;;19.47;69.45;100148.91;4975149;28;45903;-59
2021/07/12 09:09:36;;;;;;;;;9.25;7.00;;;;;19.50;69.13;100154.63;4975653;28;45312;-60
2021/07/12 09:12:37;;;;;;;;;8.00;8.00;;;;;19.52;69.43;100152.59;4975404;28;45604;-60
2021/07/12 09:15:24;;;;;;;;;7.00;6.25;;;;;19.53;69.85;100140.09;4968242;28;46356;-60
2021/07/12 09:17:52;;;;;;;;;8.00;8.00;;;;;19.56;69.79;100151.16;4975539;28;46062;-59
2021/07/12 09:20:31;;;;;;;;;8.25;7.75;;;;;19.59;70.08;100147.28;4975443;28;45359;-59
2021/07/12 09:22:57;;;;;;;;;7.00;7.00;;;;;19.62;69.09;100152.16;4975441;28;45462;-60
2021/07/12 09:25:22;;;;;;;;;9.00;6.75;;;;;19.63;69.54;100167.13;4975114;28;50200;-59
2021/07/12 09:27:54;;;;;;;;;8.50;6.50;;;;;19.64;69.30;100176.78;4975182;28;45425;-59
2021/07/12 09:30:21;;;;;;;;;8.25;7.00;;;;;19.65;69.49;100181.06;4975422;28;45238;-59
2021/07/12 09:32:47;;;;;;;;;7.00;7.00;;;;;19.67;69.19;100181.69;4975391;28;45277;-60
2021/07/12 09:35:13;;;;;;;;;9.25;7.75;;;;;19.69;69.22;100200.16;4975186;28;47225;-60
2021/07/12 09:37:39;;;;;;;;;12.00;10.75;;;;;19.69;69.24;100200.16;4975244;28;45794;-59
2021/07/12 09:40:15;;;;;;;;;9.00;7.00;;;;;19.70;69.00;100199.13;4975190;28;45399;-60
2021/07/12 09:42:42;;;;;;;;;8.00;8.00;;;;;19.72;69.01;100207.75;4974054;28;45376;-59
2021/07/12 09:45:09;;;;;;;;;11.75;9.50;;;;;19.73;69.42;100204.06;4975336;28;45255;-59
2021/07/12 09:47:37;;;;;;;;;6.00;6.00;;;;;19.73;69.22;100210.19;4974348;28;45232;-60
2021/07/12 09:50:08;;;;;;;;;9.00;8.00;;;;;19.73;69.44;100207.53;4974079;28;45410;-60
2021/07/12 09:52:52;;;;;;;;;9.75;8.00;;;;;19.76;70.01;100216.97;4975051;28;45159;-59
2021/07/12 09:55:24;;;;;;;;;9.75;9.75;;;;;19.78;69.87;100224.75;4974936;28;46272;-59
2021/07/12 09:58:11;;;;;;;;;9.75;8.25;;;;;19.77;69.57;100218.63;4974990;28;45757;-59
2021/07/12 10:00:38;;;;;;;;;7.00;7.00;;;;;19.77;69.32;100209.78;4973999;28;45240;-60
2021/07/12 10:03:03;;;;;;;;;9.75;8.00;;;;;19.75;69.90;100207.34;4975068;28;45549;-59
2021/07/12 10:05:28;;;;;;;;;8.00;8.00;;;;;19.73;69.86;100212.84;4973116;28;72985;-60
2021/07/12 10:07:54;;;;;;;;;8.50;7.25;;;;;19.73;70.18;100220.06;4973919;28;69023;-60
2021/07/12 10:10:19;;;;;;;;;11.00;8.25;;;;;19.72;70.33;100221.88;4973600;28;45198;-59
2021/07/12 10:12:45;;;;;;;;;6.00;6.00;;;;;19.72;70.81;100216.56;4974033;28;68070;-59
2021/07/12 10:15:11;;;;;;;;;6.50;5.25;;;;;19.75;70.12;100222.50;4973659;28;45364;-60
2021/07/12 10:17:37;;;;;;;;;7.50;5.50;;;;;19.76;70.34;100234.81;4974841;28;45380;-60
2021/07/12 10:20:04;;;;;;;;;7.50;6.50;;;;;19.76;70.52;100227.66;4972716;28;58653;-60
2021/07/12 10:22:32;;;;;;;;;7.00;7.00;;;;;19.76;70.27;100232.97;4974914;28;45307;-59
2021/07/12 10:25:07;;;;;;;;;6.00;6.00;;;;;19.76;70.43;100224.13;4973415;28;45223;-59
2021/07/12 10:27:32;;;;;;;;;5.75;5.50;;;;;19.76;70.50;100226.81;4974625;28;45371;-59
2021/07/12 10:29:58;;;;;;;;;5.00;5.00;;;;;19.76;70.35;100226.81;4956443;28;63009;-60
2021/07/12 10:32:24;;;;;;;;;5.00;5.00;;;;;19.76;70.31;100221.47;4956860;28;45561;-60
2021/07/12 10:34:56;;;;;;;;;7.75;6.00;;;;;19.75;70.18;100217.16;4974450;28;45474;-59
2021/07/12 10:37:35;;;;;;;;;7.75;6.25;;;;;19.73;70.43;100207.53;4974561;28;45374;-59
2021/07/12 10:40:07;;;;;;;;;4.50;4.50;;;;;19.75;69.88;100210.00;4973490;28;45399;-59
2021/07/12 10:42:42;;;;;;;;;7.00;5.25;;;;;19.75;70.09;100209.16;4974501;28;45567;-59
2021/07/12 10:45:14;;;;;;;;;5.00;4.00;;;;;19.76;70.54;100208.16;4974290;28;46256;-59
2021/07/12 10:47:40;;;;;;;;;6.75;5.00;;;;;19.78;70.13;100214.09;4974433;28;45285;-59
2021/07/12 10:50:33;;;;;;;;;4.75;4.75;;;;;19.81;70.15;100213.69;4974660;28;45290;-59
2021/07/12 10:52:59;;;;;;;;;5.00;5.00;;;;;19.86;69.72;100209.41;4974456;28;45283;-60
2021/07/12 10:55:32;;;;;;;;;6.00;6.00;;;;;19.95;69.84;100195.88;4973083;28;46403;-59
2021/07/12 10:58:26;;;;;;;;;6.25;5.75;;;;;20.04;70.16;100197.28;4975699;28;45777;-60
2021/07/12 11:00:52;;;;;;;;;7.25;6.00;;;;;20.15;69.49;100193.16;4974259;28;45286;-60
2021/07/12 11:03:36;;;;;;;;;6.50;6.00;;;;;20.29;69.54;100197.44;4974269;28;45612;-60
2021/07/12 11:06:05;;;;;;;;;8.00;7.50;;;;;20.40;69.71;100185.31;4974028;28;45332;-60
2021/07/12 11:09:00;;;;;;;;;8.00;6.75;;;;;20.58;69.17;100189.16;4973979;28;45730;-59
2021/07/12 11:11:25;;;;;;;;;6.00;6.00;;;;;20.75;67.77;100186.81;4969370;28;45516;-60
2021/07/12 11:14:05;;;;;;;;;11.00;8.75;;;;;20.92;67.37;100186.38;4974140;28;45385;-59
2021/07/12 11:16:37;;;;;;;;;7.00;7.00;;;;;21.06;68.64;100179.94;4973953;28;45308;-59
2021/07/12 11:19:18;;;;;;;;;7.75;6.00;;;;;21.26;66.69;100177.16;4976558;28;45232;-60
2021/07/12 11:21:43;;;;;;;;;6.75;6.75;;;;;21.46;67.11;100165.50;4976817;28;45322;-59
2021/07/12 11:24:09;;;;;;;;;9.75;7.00;;;;;21.69;66.76;100166.78;4974891;28;66076;-59
2021/07/12 11:26:35;;;;;;;;;8.33;8.00;;;;;21.85;66.16;100160.03;4976807;28;46468;-60
2021/07/12 11:29:15;;;;;;;;;11.75;9.50;;;;;22.00;65.03;100167.72;4976664;28;45314;-60